JIA5089 KDFW-KJAN
Flight info
| Callsign | JIA5089 |
|---|---|
| Flight time | 0h 58m |
| Altitude | 31000 |
| Route | MRSSH3 MRSSH MHZ |
| Aircraft | CRJ9/M-SDFGIRWY/S |
Departure
| Time | 2026-05-08 01:01 |
|---|---|
| Airport | Dallas Fort Worth International Airport (KDFW) |
Arrival
| Time | 2026-05-08 02:00 |
|---|---|
| Airport | Jackson-Medgar Wiley Evers International Airport (KJAN) |
| Time | Latitude | Longitude | Altitude | Speed | Heading |
|---|---|---|---|---|---|
| 2026-05-08 00:30 | 32.88760 | -97.03684 | 583 ft | 0 kts | 329° |
| 2026-05-08 00:52 | 32.88761 | -97.03685 | 583 ft | 0 kts | 345° |
| 2026-05-08 00:52 | 32.88765 | -97.03683 | 583 ft | 1 kts | 26° |
| 2026-05-08 00:53 | 32.88766 | -97.03680 | 583 ft | 0 kts | 91° |
| 2026-05-08 00:53 | 32.88739 | -97.03656 | 583 ft | 9 kts | 148° |
| 2026-05-08 00:53 | 32.88734 | -97.03620 | 583 ft | 9 kts | 62° |
| 2026-05-08 00:53 | 32.88790 | -97.03558 | 582 ft | 11 kts | 40° |
| 2026-05-08 00:54 | 32.88855 | -97.03506 | 582 ft | 11 kts | 23° |
| 2026-05-08 00:54 | 32.88904 | -97.03482 | 582 ft | 11 kts | 23° |
| 2026-05-08 00:54 | 32.89002 | -97.03444 | 582 ft | 11 kts | 9° |
| 2026-05-08 00:54 | 32.89036 | -97.03412 | 582 ft | 10 kts | 76° |
| 2026-05-08 00:55 | 32.89037 | -97.03329 | 581 ft | 11 kts | 95° |
| 2026-05-08 00:55 | 32.89059 | -97.03214 | 572 ft | 18 kts | 39° |
| 2026-05-08 00:55 | 32.89138 | -97.03197 | 572 ft | 17 kts | 359° |
| 2026-05-08 00:55 | 32.89255 | -97.03197 | 577 ft | 17 kts | 0° |
| 2026-05-08 00:56 | 32.89370 | -97.03196 | 577 ft | 17 kts | 0° |
| 2026-05-08 00:56 | 32.89488 | -97.03196 | 576 ft | 17 kts | 0° |
| 2026-05-08 00:56 | 32.89602 | -97.03194 | 579 ft | 16 kts | 1° |
| 2026-05-08 00:56 | 32.89720 | -97.03192 | 579 ft | 18 kts | 359° |
| 2026-05-08 00:57 | 32.89853 | -97.03193 | 576 ft | 20 kts | 0° |
| 2026-05-08 00:57 | 32.89993 | -97.03192 | 576 ft | 20 kts | 0° |
| 2026-05-08 00:57 | 32.90142 | -97.03192 | 577 ft | 23 kts | 0° |
| 2026-05-08 00:57 | 32.90307 | -97.03191 | 573 ft | 24 kts | 0° |
| 2026-05-08 00:58 | 32.90475 | -97.03189 | 572 ft | 24 kts | 0° |
| 2026-05-08 00:58 | 32.90646 | -97.03188 | 574 ft | 25 kts | 0° |
| 2026-05-08 00:58 | 32.90815 | -97.03187 | 580 ft | 23 kts | 0° |
| 2026-05-08 00:58 | 32.90976 | -97.03187 | 580 ft | 24 kts | 0° |
| 2026-05-08 00:59 | 32.91144 | -97.03186 | 581 ft | 24 kts | 0° |
| 2026-05-08 00:59 | 32.91299 | -97.03163 | 578 ft | 18 kts | 353° |
| 2026-05-08 00:59 | 32.91410 | -97.03181 | 579 ft | 13 kts | 354° |
| 2026-05-08 00:59 | 32.91484 | -97.03139 | 574 ft | 11 kts | 83° |
| 2026-05-08 01:00 | 32.91487 | -97.03049 | 576 ft | 11 kts | 88° |
| 2026-05-08 01:00 | 32.91458 | -97.02992 | 580 ft | 8 kts | 169° |
| 2026-05-08 01:00 | 32.91324 | -97.02990 | 576 ft | 41 kts | 180° |
| 2026-05-08 01:00 | 32.90845 | -97.02993 | 575 ft | 95 kts | 180° |
| 2026-05-08 01:01 | 32.90023 | -97.02998 | 573 ft | 138 kts | 180° |
| 2026-05-08 01:01 | 32.88955 | -97.03009 | 659 ft | 165 kts | 181° |
| 2026-05-08 01:01 | 32.87759 | -97.03054 | 1009 ft | 177 kts | 183° |
| 2026-05-08 01:01 | 32.86535 | -97.03164 | 1574 ft | 175 kts | 185° |
| 2026-05-08 01:02 | 32.85268 | -97.03204 | 1824 ft | 194 kts | 177° |
| 2026-05-08 01:02 | 32.83872 | -97.03125 | 2157 ft | 208 kts | 177° |
| 2026-05-08 01:02 | 32.82392 | -97.03047 | 2704 ft | 214 kts | 178° |
| 2026-05-08 01:02 | 32.80940 | -97.03019 | 3359 ft | 217 kts | 179° |
| 2026-05-08 01:03 | 32.79412 | -97.03013 | 4054 ft | 221 kts | 179° |
| 2026-05-08 01:03 | 32.77852 | -97.03009 | 4647 ft | 226 kts | 179° |
| 2026-05-08 01:03 | 32.76267 | -97.02999 | 5264 ft | 228 kts | 180° |
| 2026-05-08 01:03 | 32.74682 | -97.02982 | 5914 ft | 228 kts | 182° |
| 2026-05-08 01:04 | 32.73097 | -97.02975 | 6544 ft | 229 kts | 181° |
| 2026-05-08 01:04 | 32.71556 | -97.02466 | 7057 ft | 240 kts | 147° |
| 2026-05-08 01:04 | 32.70458 | -97.00941 | 7586 ft | 248 kts | 124° |
| 2026-05-08 01:04 | 32.69759 | -96.99046 | 8087 ft | 255 kts | 109° |
| 2026-05-08 01:05 | 32.69326 | -96.96991 | 8646 ft | 256 kts | 105° |
| 2026-05-08 01:05 | 32.68972 | -96.94897 | 9129 ft | 260 kts | 105° |
| 2026-05-08 01:05 | 32.68701 | -96.92760 | 9593 ft | 266 kts | 96° |
| 2026-05-08 01:05 | 32.68716 | -96.90545 | 9868 ft | 281 kts | 90° |
| 2026-05-08 01:06 | 32.68834 | -96.88157 | 9999 ft | 298 kts | 88° |
| 2026-05-08 01:06 | 32.68970 | -96.85666 | 10176 ft | 313 kts | 89° |
| 2026-05-08 01:06 | 32.69045 | -96.83143 | 10385 ft | 324 kts | 91° |
| 2026-05-08 01:06 | 32.69068 | -96.80826 | 10634 ft | 332 kts | 91° |
| 2026-05-08 01:07 | 32.69094 | -96.78066 | 10917 ft | 343 kts | 91° |
| 2026-05-08 01:07 | 32.69134 | -96.75203 | 11285 ft | 348 kts | 90° |
| 2026-05-08 01:07 | 32.69182 | -96.72314 | 11723 ft | 352 kts | 90° |
| 2026-05-08 01:07 | 32.69232 | -96.69393 | 12152 ft | 355 kts | 89° |
| 2026-05-08 01:08 | 32.69278 | -96.66440 | 12575 ft | 359 kts | 90° |
| 2026-05-08 01:08 | 32.69320 | -96.63465 | 12999 ft | 362 kts | 89° |
| 2026-05-08 01:08 | 32.69362 | -96.60496 | 13396 ft | 366 kts | 89° |
| 2026-05-08 01:08 | 32.69406 | -96.57462 | 13800 ft | 369 kts | 89° |
| 2026-05-08 01:09 | 32.69452 | -96.54403 | 14177 ft | 371 kts | 89° |
| 2026-05-08 01:09 | 32.69492 | -96.51324 | 14531 ft | 374 kts | 89° |
| 2026-05-08 01:09 | 32.69531 | -96.48393 | 14866 ft | 376 kts | 89° |
| 2026-05-08 01:09 | 32.69568 | -96.45270 | 15206 ft | 379 kts | 90° |
| 2026-05-08 01:10 | 32.69608 | -96.42136 | 15532 ft | 381 kts | 90° |
| 2026-05-08 01:10 | 32.69651 | -96.38971 | 15855 ft | 384 kts | 90° |
| 2026-05-08 01:10 | 32.69688 | -96.35791 | 16185 ft | 386 kts | 90° |
| 2026-05-08 01:10 | 32.69712 | -96.32593 | 16497 ft | 388 kts | 92° |
| 2026-05-08 01:11 | 32.69548 | -96.29384 | 16812 ft | 390 kts | 97° |
| 2026-05-08 01:11 | 32.69263 | -96.26172 | 17114 ft | 392 kts | 98° |
| 2026-05-08 01:11 | 32.68974 | -96.22941 | 17411 ft | 395 kts | 97° |
| 2026-05-08 01:11 | 32.68726 | -96.19727 | 17700 ft | 397 kts | 96° |
| 2026-05-08 01:12 | 32.68510 | -96.16450 | 17982 ft | 399 kts | 96° |
| 2026-05-08 01:12 | 32.68299 | -96.13292 | 18245 ft | 401 kts | 96° |
| 2026-05-08 01:12 | 32.68074 | -96.09965 | 18498 ft | 403 kts | 96° |
| 2026-05-08 01:12 | 32.67853 | -96.06630 | 18690 ft | 407 kts | 96° |
| 2026-05-08 01:13 | 32.67625 | -96.03267 | 18912 ft | 409 kts | 96° |
| 2026-05-08 01:13 | 32.67395 | -95.99891 | 19129 ft | 411 kts | 96° |
| 2026-05-08 01:13 | 32.67196 | -95.96982 | 19306 ft | 413 kts | 96° |
| 2026-05-08 01:13 | 32.66964 | -95.93575 | 19514 ft | 416 kts | 96° |
| 2026-05-08 01:14 | 32.66731 | -95.90145 | 19719 ft | 418 kts | 96° |
| 2026-05-08 01:14 | 32.66492 | -95.86701 | 20004 ft | 420 kts | 96° |
| 2026-05-08 01:14 | 32.66245 | -95.83223 | 20471 ft | 425 kts | 96° |
| 2026-05-08 01:14 | 32.66018 | -95.79816 | 20904 ft | 429 kts | 95° |
| 2026-05-08 01:15 | 32.65778 | -95.76293 | 21342 ft | 434 kts | 96° |
| 2026-05-08 01:15 | 32.65527 | -95.72752 | 21757 ft | 439 kts | 95° |
| 2026-05-08 01:15 | 32.65273 | -95.69113 | 22148 ft | 444 kts | 95° |
| 2026-05-08 01:15 | 32.65015 | -95.65451 | 22567 ft | 448 kts | 95° |
| 2026-05-08 01:16 | 32.64754 | -95.61745 | 22963 ft | 453 kts | 95° |
| 2026-05-08 01:16 | 32.64488 | -95.58002 | 23363 ft | 457 kts | 95° |
| 2026-05-08 01:16 | 32.64220 | -95.54231 | 23732 ft | 461 kts | 95° |
| 2026-05-08 01:16 | 32.63954 | -95.50436 | 24117 ft | 463 kts | 95° |
| 2026-05-08 01:17 | 32.63681 | -95.46618 | 24501 ft | 465 kts | 96° |
| 2026-05-08 01:17 | 32.63410 | -95.42954 | 24869 ft | 466 kts | 96° |
| 2026-05-08 01:17 | 32.63123 | -95.39100 | 25248 ft | 468 kts | 96° |
| 2026-05-08 01:17 | 32.62837 | -95.35249 | 25604 ft | 470 kts | 97° |
| 2026-05-08 01:18 | 32.62549 | -95.31369 | 25944 ft | 473 kts | 97° |
| 2026-05-08 01:18 | 32.62266 | -95.27527 | 26268 ft | 475 kts | 97° |
| 2026-05-08 01:18 | 32.61976 | -95.23622 | 26609 ft | 476 kts | 97° |
| 2026-05-08 01:18 | 32.61684 | -95.19700 | 26944 ft | 478 kts | 98° |
| 2026-05-08 01:19 | 32.61389 | -95.15766 | 27268 ft | 480 kts | 98° |
| 2026-05-08 01:19 | 32.61089 | -95.11808 | 27598 ft | 482 kts | 98° |
| 2026-05-08 01:19 | 32.60803 | -95.08028 | 27893 ft | 483 kts | 98° |
| 2026-05-08 01:19 | 32.60500 | -95.04042 | 28200 ft | 485 kts | 98° |
| 2026-05-08 01:20 | 32.60197 | -95.00056 | 28493 ft | 487 kts | 99° |
| 2026-05-08 01:20 | 32.59933 | -94.96612 | 28745 ft | 488 kts | 99° |
| 2026-05-08 01:20 | 32.59623 | -94.92594 | 29014 ft | 491 kts | 99° |
| 2026-05-08 01:20 | 32.59310 | -94.88563 | 29301 ft | 492 kts | 99° |
| 2026-05-08 01:21 | 32.58992 | -94.84513 | 29603 ft | 494 kts | 100° |
| 2026-05-08 01:21 | 32.58668 | -94.80444 | 29884 ft | 496 kts | 100° |
| 2026-05-08 01:21 | 32.58385 | -94.76363 | 30147 ft | 499 kts | 98° |
| 2026-05-08 01:21 | 32.58282 | -94.72415 | 30338 ft | 503 kts | 95° |
| 2026-05-08 01:22 | 32.58289 | -94.68251 | 30546 ft | 505 kts | 94° |
| 2026-05-08 01:22 | 32.58305 | -94.64082 | 30741 ft | 507 kts | 94° |
| 2026-05-08 01:22 | 32.58286 | -94.59891 | 30906 ft | 509 kts | 95° |
| 2026-05-08 01:23 | 32.58139 | -94.51471 | 31010 ft | 520 kts | 95° |
| 2026-05-08 01:23 | 32.58004 | -94.42797 | 31050 ft | 532 kts | 95° |
| 2026-05-08 01:24 | 32.57862 | -94.34116 | 31059 ft | 541 kts | 95° |
| 2026-05-08 01:24 | 32.57705 | -94.25190 | 31055 ft | 542 kts | 95° |
| 2026-05-08 01:25 | 32.57540 | -94.16228 | 31051 ft | 544 kts | 95° |
| 2026-05-08 01:25 | 32.57369 | -94.07306 | 31049 ft | 546 kts | 95° |
| 2026-05-08 01:26 | 32.57198 | -93.98726 | 31054 ft | 547 kts | 95° |
| 2026-05-08 01:26 | 32.57029 | -93.90358 | 31054 ft | 546 kts | 95° |
| 2026-05-08 01:27 | 32.56839 | -93.81349 | 31056 ft | 545 kts | 95° |
| 2026-05-08 01:27 | 32.56645 | -93.72363 | 31058 ft | 545 kts | 95° |
| 2026-05-08 01:28 | 32.56448 | -93.63762 | 31034 ft | 544 kts | 95° |
| 2026-05-08 01:28 | 32.56246 | -93.54802 | 31051 ft | 544 kts | 95° |
| 2026-05-08 01:29 | 32.56033 | -93.45842 | 31061 ft | 543 kts | 95° |
| 2026-05-08 01:29 | 32.55815 | -93.36880 | 31062 ft | 543 kts | 95° |
| 2026-05-08 01:30 | 32.55599 | -93.28366 | 31063 ft | 543 kts | 95° |
| 2026-05-08 01:30 | 32.55365 | -93.19352 | 31064 ft | 543 kts | 95° |
| 2026-05-08 01:31 | 32.55126 | -93.10454 | 31063 ft | 543 kts | 95° |
| 2026-05-08 01:31 | 32.54882 | -93.01495 | 31068 ft | 543 kts | 95° |
| 2026-05-08 01:32 | 32.54660 | -92.93625 | 31066 ft | 543 kts | 95° |
| 2026-05-08 01:32 | 32.54402 | -92.84674 | 31064 ft | 543 kts | 95° |
| 2026-05-08 01:33 | 32.54138 | -92.75732 | 31056 ft | 543 kts | 95° |
| 2026-05-08 01:33 | 32.53869 | -92.66838 | 31048 ft | 543 kts | 95° |
| 2026-05-08 01:34 | 32.53608 | -92.58270 | 31055 ft | 543 kts | 95° |
| 2026-05-08 01:34 | 32.53324 | -92.49321 | 31056 ft | 543 kts | 95° |
| 2026-05-08 01:35 | 32.53039 | -92.40397 | 31057 ft | 543 kts | 95° |
| 2026-05-08 01:35 | 32.52743 | -92.31451 | 31061 ft | 543 kts | 95° |
| 2026-05-08 01:36 | 32.52457 | -92.22929 | 31073 ft | 543 kts | 95° |
| 2026-05-08 01:36 | 32.52147 | -92.13985 | 31070 ft | 543 kts | 95° |
| 2026-05-08 01:37 | 32.51845 | -92.05345 | 31057 ft | 538 kts | 95° |
| 2026-05-08 01:37 | 32.51687 | -92.00836 | 30820 ft | 541 kts | 95° |
| 2026-05-08 01:37 | 32.51547 | -91.97030 | 30589 ft | 543 kts | 95° |
| 2026-05-08 01:37 | 32.51393 | -91.92786 | 30334 ft | 545 kts | 95° |
| 2026-05-08 01:38 | 32.51231 | -91.88335 | 30043 ft | 548 kts | 95° |
| 2026-05-08 01:38 | 32.51066 | -91.83868 | 29693 ft | 533 kts | 95° |
| 2026-05-08 01:38 | 32.50910 | -91.79535 | 29310 ft | 518 kts | 95° |
| 2026-05-08 01:38 | 32.50754 | -91.75341 | 28925 ft | 506 kts | 95° |
| 2026-05-08 01:39 | 32.50594 | -91.71216 | 28543 ft | 494 kts | 95° |
| 2026-05-08 01:39 | 32.50442 | -91.67191 | 28166 ft | 484 kts | 95° |
| 2026-05-08 01:39 | 32.50288 | -91.63242 | 27785 ft | 474 kts | 95° |
| 2026-05-08 01:39 | 32.50139 | -91.59380 | 27419 ft | 465 kts | 95° |
| 2026-05-08 01:40 | 32.50001 | -91.55809 | 27083 ft | 458 kts | 95° |
| 2026-05-08 01:40 | 32.49852 | -91.52065 | 26725 ft | 450 kts | 95° |
| 2026-05-08 01:40 | 32.49706 | -91.48383 | 26361 ft | 444 kts | 95° |
| 2026-05-08 01:40 | 32.49564 | -91.44758 | 26002 ft | 437 kts | 95° |
| 2026-05-08 01:41 | 32.49419 | -91.41190 | 25594 ft | 431 kts | 95° |
| 2026-05-08 01:41 | 32.49274 | -91.37666 | 25149 ft | 427 kts | 95° |
| 2026-05-08 01:41 | 32.49134 | -91.34170 | 24694 ft | 423 kts | 95° |
| 2026-05-08 01:41 | 32.48994 | -91.30696 | 24249 ft | 420 kts | 95° |
| 2026-05-08 01:42 | 32.48849 | -91.27260 | 23831 ft | 416 kts | 95° |
| 2026-05-08 01:42 | 32.48707 | -91.23855 | 23376 ft | 411 kts | 94° |
| 2026-05-08 01:42 | 32.48579 | -91.20709 | 22981 ft | 407 kts | 94° |
| 2026-05-08 01:42 | 32.48438 | -91.17364 | 22393 ft | 404 kts | 95° |
| 2026-05-08 01:43 | 32.48298 | -91.14046 | 21785 ft | 403 kts | 94° |
| 2026-05-08 01:43 | 32.48204 | -91.11857 | 21389 ft | 402 kts | 94° |
| 2026-05-08 01:43 | 32.48065 | -91.08552 | 20808 ft | 400 kts | 95° |
| 2026-05-08 01:43 | 32.47875 | -91.04200 | 20049 ft | 398 kts | 94° |
| 2026-05-08 01:44 | 32.47779 | -91.01997 | 19673 ft | 397 kts | 94° |
| 2026-05-08 01:44 | 32.47612 | -90.98128 | 19016 ft | 394 kts | 95° |
| 2026-05-08 01:44 | 32.47469 | -90.94895 | 18472 ft | 392 kts | 94° |
| 2026-05-08 01:44 | 32.47374 | -90.92722 | 18094 ft | 391 kts | 94° |
| 2026-05-08 01:45 | 32.47232 | -90.89514 | 17462 ft | 389 kts | 94° |
| 2026-05-08 01:45 | 32.47100 | -90.86537 | 16895 ft | 387 kts | 94° |
| 2026-05-08 01:45 | 32.46960 | -90.83393 | 16311 ft | 385 kts | 94° |
| 2026-05-08 01:45 | 32.46818 | -90.80232 | 15732 ft | 383 kts | 94° |
| 2026-05-08 01:46 | 32.46677 | -90.77094 | 15167 ft | 381 kts | 94° |
| 2026-05-08 01:46 | 32.46534 | -90.73972 | 14590 ft | 379 kts | 94° |
| 2026-05-08 01:46 | 32.46392 | -90.70862 | 14051 ft | 377 kts | 94° |
| 2026-05-08 01:46 | 32.46248 | -90.67771 | 13446 ft | 375 kts | 94° |
| 2026-05-08 01:47 | 32.46109 | -90.64703 | 12836 ft | 372 kts | 93° |
| 2026-05-08 01:47 | 32.45778 | -90.61687 | 12223 ft | 367 kts | 109° |
| 2026-05-08 01:47 | 32.44715 | -90.58991 | 11639 ft | 358 kts | 125° |
| 2026-05-08 01:48 | 32.42045 | -90.54102 | 10501 ft | 350 kts | 128° |
| 2026-05-08 01:48 | 32.40774 | -90.51903 | 10019 ft | 346 kts | 128° |
| 2026-05-08 01:48 | 32.39411 | -90.49585 | 9593 ft | 337 kts | 128° |
| 2026-05-08 01:48 | 32.38080 | -90.47340 | 9155 ft | 329 kts | 128° |
| 2026-05-08 01:49 | 32.36787 | -90.45174 | 8716 ft | 323 kts | 128° |
| 2026-05-08 01:49 | 32.35499 | -90.43030 | 8291 ft | 317 kts | 129° |
| 2026-05-08 01:49 | 32.34233 | -90.40925 | 7856 ft | 311 kts | 128° |
| 2026-05-08 01:49 | 32.32986 | -90.38870 | 7443 ft | 305 kts | 128° |
| 2026-05-08 01:50 | 32.31759 | -90.36855 | 7034 ft | 299 kts | 128° |
| 2026-05-08 01:50 | 32.30555 | -90.34882 | 6629 ft | 294 kts | 128° |
| 2026-05-08 01:50 | 32.29368 | -90.32939 | 6218 ft | 288 kts | 128° |
| 2026-05-08 01:50 | 32.28195 | -90.31044 | 5791 ft | 283 kts | 128° |
| 2026-05-08 01:51 | 32.27025 | -90.29182 | 5417 ft | 281 kts | 128° |
| 2026-05-08 01:51 | 32.25863 | -90.27362 | 5215 ft | 273 kts | 128° |
| 2026-05-08 01:51 | 32.24730 | -90.25604 | 5032 ft | 264 kts | 128° |
| 2026-05-08 01:51 | 32.23622 | -90.23901 | 4847 ft | 261 kts | 128° |
| 2026-05-08 01:52 | 32.22512 | -90.22212 | 4666 ft | 260 kts | 128° |
| 2026-05-08 01:52 | 32.21434 | -90.20583 | 4493 ft | 260 kts | 128° |
| 2026-05-08 01:52 | 32.20313 | -90.18900 | 4313 ft | 261 kts | 128° |
| 2026-05-08 01:52 | 32.19196 | -90.17307 | 4159 ft | 256 kts | 134° |
| 2026-05-08 01:53 | 32.17985 | -90.15910 | 4134 ft | 242 kts | 137° |
| 2026-05-08 01:53 | 32.16767 | -90.14582 | 3966 ft | 235 kts | 138° |
| 2026-05-08 01:53 | 32.15561 | -90.13304 | 3770 ft | 231 kts | 138° |
| 2026-05-08 01:53 | 32.14369 | -90.12065 | 3582 ft | 226 kts | 138° |
| 2026-05-08 01:54 | 32.13197 | -90.10865 | 3403 ft | 221 kts | 138° |
| 2026-05-08 01:54 | 32.12042 | -90.09693 | 3225 ft | 219 kts | 138° |
| 2026-05-08 01:54 | 32.11112 | -90.08303 | 3018 ft | 217 kts | 109° |
| 2026-05-08 01:54 | 32.11009 | -90.06559 | 2858 ft | 215 kts | 75° |
| 2026-05-08 01:55 | 32.11427 | -90.04859 | 2742 ft | 217 kts | 71° |
| 2026-05-08 01:55 | 32.12032 | -90.03254 | 2609 ft | 218 kts | 52° |
| 2026-05-08 01:55 | 32.13206 | -90.02180 | 2467 ft | 214 kts | 19° |
| 2026-05-08 01:55 | 32.14620 | -90.01802 | 2351 ft | 204 kts | 10° |
| 2026-05-08 01:56 | 32.15993 | -90.01573 | 2215 ft | 196 kts | 358° |
| 2026-05-08 01:56 | 32.17310 | -90.01927 | 2110 ft | 196 kts | 344° |
| 2026-05-08 01:56 | 32.18622 | -90.02388 | 2052 ft | 196 kts | 343° |
| 2026-05-08 01:56 | 32.19820 | -90.02875 | 2136 ft | 168 kts | 340° |
| 2026-05-08 01:57 | 32.20873 | -90.03352 | 2050 ft | 157 kts | 339° |
| 2026-05-08 01:57 | 32.21857 | -90.03814 | 1936 ft | 153 kts | 339° |
| 2026-05-08 01:57 | 32.22802 | -90.04263 | 1713 ft | 153 kts | 339° |
| 2026-05-08 01:57 | 32.23790 | -90.04729 | 1515 ft | 151 kts | 339° |
| 2026-05-08 01:58 | 32.24744 | -90.05183 | 1334 ft | 144 kts | 339° |
| 2026-05-08 01:58 | 32.25661 | -90.05618 | 1133 ft | 142 kts | 339° |
| 2026-05-08 01:58 | 32.26586 | -90.06053 | 911 ft | 145 kts | 338° |
| 2026-05-08 01:58 | 32.27525 | -90.06506 | 720 ft | 146 kts | 339° |
| 2026-05-08 01:59 | 32.28472 | -90.06957 | 524 ft | 148 kts | 338° |
| 2026-05-08 01:59 | 32.29433 | -90.07417 | 333 ft | 148 kts | 338° |
| 2026-05-08 01:59 | 32.30272 | -90.07814 | 303 ft | 104 kts | 338° |
| 2026-05-08 01:59 | 32.30797 | -90.08065 | 304 ft | 56 kts | 338° |
| 2026-05-08 02:00 | 32.31016 | -90.08168 | 306 ft | 16 kts | 338° |
| 2026-05-08 02:00 | 32.31105 | -90.08146 | 302 ft | 11 kts | 64° |
| 2026-05-08 02:00 | 32.31137 | -90.08054 | 296 ft | 14 kts | 68° |
| 2026-05-08 02:00 | 32.31175 | -90.07942 | 293 ft | 15 kts | 68° |
| 2026-05-08 02:01 | 32.31213 | -90.07828 | 296 ft | 14 kts | 68° |
| 2026-05-08 02:01 | 32.31244 | -90.07741 | 292 ft | 11 kts | 66° |
| 2026-05-08 02:01 | 32.31273 | -90.07656 | 295 ft | 12 kts | 68° |
| 2026-05-08 02:01 | 32.31286 | -90.07569 | 294 ft | 10 kts | 119° |
| 2026-05-08 02:02 | 32.31235 | -90.07541 | 292 ft | 8 kts | 192° |
| 2026-05-08 02:02 | 32.31194 | -90.07555 | 294 ft | 0 kts | 188° |
| 2026-05-08 02:02 | 32.31171 | -90.07550 | 293 ft | 9 kts | 166° |
| 2026-05-08 02:03 | 32.31115 | -90.07529 | 297 ft | 8 kts | 162° |
| 2026-05-08 02:03 | 32.31079 | -90.07499 | 293 ft | 3 kts | 120° |
| 2026-05-08 02:03 | 32.31073 | -90.07486 | 295 ft | 0 kts | 114° |
| 2026-05-08 02:03 | 32.31073 | -90.07485 | 295 ft | 0 kts | 114° |